Time;durP1;ratioP1;P1;durP2;ratioP2;P2;SDS_P1;SDS_P2;PMS_P1;PMS_P2;Temp;Humidity;BMP_temperature;BMP_pressure;BME280_temperature;BME280_humidity;BME280_pressure;Samples;Min_cycle;Max_cycle;Signal;HPM_P1;HPM_P2
2023/10/24 00:01:25;;;;;;;3.53;2.25;;;10.20;99.90;;;;;;5023674;28;20053;-80
2023/10/24 00:03:50;;;;;;;4.13;2.03;;;10.20;99.90;;;;;;5032197;28;20038;-81
2023/10/24 00:06:16;;;;;;;2.08;1.83;;;10.30;99.90;;;;;;5041931;28;20542;-80
2023/10/24 00:08:42;;;;;;;2.92;2.03;;;10.30;99.90;;;;;;5035632;28;20438;-78
2023/10/24 00:11:07;;;;;;;3.55;2.20;;;10.30;99.90;;;;;;5038800;28;20059;-80
2023/10/24 00:13:33;;;;;;;6.57;2.00;;;10.30;99.90;;;;;;5042162;28;20197;-81
2023/10/24 00:16:27;;;;;;;3.30;1.95;;;10.30;99.90;;;;;;5041814;28;20037;-82
2023/10/24 00:19:19;;;;;;;6.53;2.30;;;10.30;99.90;;;;;;5070034;28;20497;-81
2023/10/24 00:21:46;;;;;;;3.38;2.00;;;10.30;99.90;;;;;;5037307;28;20037;-81
2023/10/24 00:24:14;;;;;;;3.58;2.00;;;10.30;99.90;;;;;;5041177;28;20036;-82
2023/10/24 00:26:40;;;;;;;3.38;2.25;;;10.30;99.90;;;;;;5032574;28;20030;-82
2023/10/24 00:29:05;;;;;;;3.83;2.05;;;10.30;99.90;;;;;;5029659;28;20043;-83
2023/10/24 00:31:32;;;;;;;5.65;2.42;;;10.30;99.90;;;;;;5021172;28;20030;-81
2023/10/24 00:33:58;;;;;;;3.33;2.40;;;10.30;99.90;;;;;;5026156;28;20386;-81
2023/10/24 00:36:24;;;;;;;4.95;2.10;;;10.40;99.90;;;;;;5003234;28;20060;-81
2023/10/24 00:38:50;;;;;;;2.80;1.90;;;10.40;99.90;;;;;;5037435;28;20026;-84
2023/10/24 00:41:15;;;;;;;2.72;2.10;;;10.40;99.90;;;;;;5031471;28;20025;-82
2023/10/24 00:43:42;;;;;;;3.67;2.33;;;10.40;99.90;;;;;;5041203;28;20175;-81
2023/10/24 00:46:09;;;;;;;3.58;2.10;;;10.40;99.90;;;;;;5006437;28;20112;-83
2023/10/24 00:48:35;;;;;;;5.18;2.55;;;10.40;99.90;;;;;;5036122;28;20025;-82
2023/10/24 00:51:01;;;;;;;4.45;2.70;;;10.40;99.90;;;;;;5034727;28;20494;-83
2023/10/24 00:53:26;;;;;;;5.43;2.42;;;10.40;99.90;;;;;;5048313;28;20124;-83
2023/10/24 00:55:54;;;;;;;6.63;2.40;;;10.50;99.90;;;;;;5049808;28;20561;-83
2023/10/24 00:58:20;;;;;;;4.40;2.25;;;10.60;99.90;;;;;;5043215;28;20072;-81
2023/10/24 01:00:46;;;;;;;5.35;2.60;;;10.70;99.90;;;;;;5030613;28;20022;-82
2023/10/24 01:03:13;;;;;;;5.97;2.15;;;10.80;99.90;;;;;;5037005;28;20062;-81
2023/10/24 01:05:40;;;;;;;2.47;1.75;;;10.90;99.90;;;;;;5045177;28;20615;-82
2023/10/24 01:08:06;;;;;;;4.13;2.33;;;11.00;99.90;;;;;;5041537;28;20087;-80
2023/10/24 01:10:32;;;;;;;4.10;2.00;;;11.10;99.90;;;;;;5048141;28;20052;-82
2023/10/24 01:12:58;;;;;;;3.65;2.30;;;11.20;99.90;;;;;;5032656;28;20033;-81
2023/10/24 01:15:24;;;;;;;5.53;2.17;;;11.10;99.90;;;;;;5045622;28;20033;-81
2023/10/24 01:17:51;;;;;;;5.82;2.35;;;11.10;99.90;;;;;;5041264;28;20034;-82
2023/10/24 01:20:27;;;;;;;;;;;11.10;99.90;;;;;;5043129;28;20128;-83
2023/10/24 01:22:58;;;;;;;5.68;2.20;;;11.00;99.90;;;;;;5033123;28;19909;-80
2023/10/24 01:25:26;;;;;;;5.32;2.25;;;11.00;99.90;;;;;;5041708;28;20083;-83
2023/10/24 01:27:55;;;;;;;3.20;1.85;;;11.00;99.90;;;;;;5031805;28;20854;-83
2023/10/24 01:30:20;;;;;;;3.15;2.10;;;11.00;99.90;;;;;;5040311;28;20037;-81
2023/10/24 01:32:51;;;;;;;3.38;2.20;;;11.00;99.90;;;;;;5043636;28;20095;-82
2023/10/24 01:35:17;;;;;;;3.55;2.00;;;11.00;99.90;;;;;;5019269;28;20048;-82
2023/10/24 01:37:43;;;;;;;4.88;2.45;;;11.00;99.90;;;;;;5033331;28;20041;-81
2023/10/24 01:40:10;;;;;;;4.18;1.90;;;11.10;99.90;;;;;;5033285;28;20029;-80
2023/10/24 01:42:35;;;;;;;6.35;2.15;;;11.10;99.90;;;;;;5031236;28;20038;-83
2023/10/24 01:45:06;;;;;;;3.33;2.22;;;11.10;99.90;;;;;;5019612;28;20045;-83
2023/10/24 01:47:58;;;;;;;4.28;2.10;;;11.10;99.90;;;;;;5025329;28;20041;-81
2023/10/24 01:50:24;;;;;;;5.47;2.30;;;11.20;99.90;;;;;;5034186;28;20033;-82
2023/10/24 01:52:58;;;;;;;5.00;2.40;;;11.20;99.90;;;;;;5020564;28;20032;-83
2023/10/24 01:55:26;;;;;;;4.13;2.20;;;11.20;99.90;;;;;;5033358;28;20034;-81
2023/10/24 01:57:52;;;;;;;5.28;2.38;;;11.20;99.90;;;;;;5026437;28;20040;-80
2023/10/24 02:00:18;;;;;;;3.20;1.90;;;11.20;99.90;;;;;;5017070;28;20056;-81
2023/10/24 02:02:44;;;;;;;4.18;2.20;;;11.20;99.90;;;;;;5039700;28;20160;-81
2023/10/24 02:05:12;;;;;;;3.05;2.45;;;11.20;99.90;;;;;;5044944;28;20045;-84
2023/10/24 02:07:38;;;;;;;7.18;2.38;;;11.20;99.90;;;;;;5027950;28;20037;-83
2023/10/24 02:10:04;;;;;;;6.75;2.60;;;11.20;99.90;;;;;;5033306;28;20036;-82
2023/10/24 02:12:30;;;;;;;3.22;2.55;;;11.20;99.90;;;;;;5030866;28;20034;-81
2023/10/24 02:14:56;;;;;;;4.82;2.65;;;11.20;99.90;;;;;;5032161;28;20029;-82
2023/10/24 02:17:22;;;;;;;2.85;2.30;;;11.20;99.90;;;;;;5031848;28;20385;-80
2023/10/24 02:19:49;;;;;;;5.40;2.70;;;11.20;99.90;;;;;;5034557;28;20033;-82
2023/10/24 02:22:15;;;;;;;5.80;2.40;;;11.10;99.90;;;;;;5029443;28;20033;-81
2023/10/24 02:24:44;;;;;;;4.93;2.40;;;11.10;99.90;;;;;;5037248;28;20033;-83
2023/10/24 02:27:11;;;;;;;3.13;2.45;;;11.10;99.90;;;;;;5035100;28;20071;-81
2023/10/24 02:29:37;;;;;;;3.22;2.60;;;11.00;99.90;;;;;;5051564;28;20440;-82
2023/10/24 02:32:12;;;;;;;5.05;2.25;;;11.10;99.90;;;;;;5038411;28;20260;-82
2023/10/24 02:34:38;;;;;;;5.80;3.00;;;11.10;99.90;;;;;;5036052;28;20029;-83
2023/10/24 02:37:03;;;;;;;4.05;2.22;;;11.10;99.90;;;;;;5033036;28;20173;-82
2023/10/24 02:39:30;;;;;;;5.80;2.50;;;11.10;99.90;;;;;;5032903;28;20116;-81
2023/10/24 02:41:56;;;;;;;5.30;2.97;;;11.10;99.90;;;;;;5015195;28;20046;-81
2023/10/24 02:44:22;;;;;;;5.18;3.00;;;11.10;99.90;;;;;;5045104;28;20101;-82
2023/10/24 02:46:48;;;;;;;6.47;3.08;;;11.20;99.90;;;;;;5054870;28;20029;-82
2023/10/24 02:49:14;;;;;;;6.25;3.00;;;11.20;99.90;;;;;;4986564;28;20060;-79
2023/10/24 02:51:40;;;;;;;6.45;3.25;;;11.20;99.90;;;;;;5036643;28;20041;-80
2023/10/24 02:54:06;;;;;;;3.50;2.60;;;11.20;99.90;;;;;;5030366;28;20087;-81
2023/10/24 02:56:34;;;;;;;3.95;2.83;;;11.30;99.90;;;;;;5015217;28;20037;-83
2023/10/24 02:59:01;;;;;;;6.32;3.05;;;11.30;99.90;;;;;;5030842;28;20136;-83
2023/10/24 03:01:27;;;;;;;6.97;2.90;;;11.30;99.90;;;;;;5029327;28;20108;-81
2023/10/24 03:03:53;;;;;;;4.47;3.25;;;11.30;99.90;;;;;;5032334;28;20119;-83
2023/10/24 03:06:19;;;;;;;6.18;3.00;;;11.30;99.90;;;;;;5032959;28;20037;-81
2023/10/24 03:08:45;;;;;;;4.13;3.13;;;11.30;99.90;;;;;;5028324;28;20034;-82
2023/10/24 03:11:11;;;;;;;6.35;3.30;;;11.30;99.90;;;;;;5003589;28;20061;-81
2023/10/24 03:13:37;;;;;;;6.90;3.30;;;11.20;99.90;;;;;;5023217;28;20516;-81
2023/10/24 03:16:03;;;;;;;3.70;3.30;;;11.30;99.90;;;;;;5030017;28;20108;-81
2023/10/24 03:18:30;;;;;;;4.18;3.15;;;11.20;99.90;;;;;;5046115;28;20095;-85
2023/10/24 03:20:57;;;;;;;4.22;3.22;;;11.30;99.90;;;;;;5039285;28;20029;-81
2023/10/24 03:23:23;;;;;;;4.00;2.97;;;11.20;99.90;;;;;;5039304;28;20089;-81
2023/10/24 03:25:50;;;;;;;3.17;2.80;;;11.20;99.90;;;;;;5040288;28;20044;-81
2023/10/24 03:28:16;;;;;;;5.93;3.40;;;11.20;99.90;;;;;;5040797;28;20053;-82
2023/10/24 03:30:43;;;;;;;5.07;3.63;;;11.10;99.90;;;;;;5044309;28;20025;-84
2023/10/24 03:33:09;;;;;;;6.63;3.50;;;11.10;99.90;;;;;;5032989;28;20032;-82
2023/10/24 03:35:36;;;;;;;7.63;3.15;;;11.10;99.90;;;;;;5033889;28;20424;-81
2023/10/24 03:38:02;;;;;;;5.57;3.58;;;11.10;99.90;;;;;;5030850;28;20017;-82
2023/10/24 03:40:47;;;;;;;5.05;3.30;;;11.10;99.90;;;;;;5028597;28;20184;-83
2023/10/24 03:43:13;;;;;;;4.70;3.35;;;11.00;99.90;;;;;;5037292;28;20075;-82
2023/10/24 03:45:38;;;;;;;5.35;3.33;;;11.00;99.90;;;;;;5041692;28;20059;-82
2023/10/24 03:48:04;;;;;;;7.95;3.55;;;11.00;99.90;;;;;;5048624;28;20097;-82
2023/10/24 03:50:34;;;;;;;6.38;3.53;;;11.00;99.90;;;;;;5038181;28;20033;-83
2023/10/24 03:53:00;;;;;;;4.35;3.30;;;11.00;99.90;;;;;;5046999;28;20044;-84
2023/10/24 03:55:26;;;;;;;4.85;3.47;;;11.00;99.90;;;;;;5038902;28;20033;-81
2023/10/24 03:57:51;;;;;;;5.80;3.22;;;11.00;99.90;;;;;;5038756;28;20036;-82
2023/10/24 04:00:18;;;;;;;6.00;3.67;;;11.00;99.90;;;;;;5056935;28;20028;-81
2023/10/24 04:02:46;;;;;;;4.25;3.53;;;11.00;99.90;;;;;;5040810;28;20048;-80
2023/10/24 04:05:12;;;;;;;5.00;3.70;;;11.00;99.90;;;;;;5039356;28;20413;-82
2023/10/24 04:07:37;;;;;;;3.95;3.38;;;11.00;99.90;;;;;;5046859;28;20034;-82
2023/10/24 04:10:04;;;;;;;5.57;3.25;;;11.00;99.90;;;;;;5021429;28;20037;-83
2023/10/24 04:12:30;;;;;;;7.00;3.72;;;10.90;99.90;;;;;;5034005;28;20502;-82
2023/10/24 04:14:55;;;;;;;5.75;3.65;;;11.00;99.90;;;;;;5025487;28;20084;-83
2023/10/24 04:17:21;;;;;;;5.22;3.22;;;11.00;99.90;;;;;;5034659;28;20056;-83
2023/10/24 04:19:47;;;;;;;5.53;3.70;;;10.90;99.90;;;;;;5036664;28;20029;-84
2023/10/24 04:22:14;;;;;;;7.57;4.22;;;11.00;99.90;;;;;;5033458;28;20473;-82
2023/10/24 04:24:39;;;;;;;6.25;3.28;;;11.00;99.90;;;;;;5035590;28;20049;-81
2023/10/24 04:27:07;;;;;;;6.25;3.83;;;11.00;99.90;;;;;;5056635;28;20059;-81
2023/10/24 04:29:33;;;;;;;8.93;3.92;;;11.00;99.90;;;;;;5038183;28;20041;-82
2023/10/24 04:31:58;;;;;;;4.32;3.60;;;11.00;99.90;;;;;;5037530;28;20034;-82
2023/10/24 04:34:25;;;;;;;7.18;3.88;;;11.00;99.90;;;;;;5044060;28;20056;-83
2023/10/24 04:36:53;;;;;;;5.68;3.42;;;11.00;99.90;;;;;;5037162;28;20036;-83
2023/10/24 04:39:19;;;;;;;4.03;3.33;;;10.90;99.90;;;;;;5041420;28;20030;-81
2023/10/24 04:41:48;;;;;;;5.43;3.13;;;10.90;99.90;;;;;;5026827;28;20094;-83
2023/10/24 04:44:14;;;;;;;5.72;3.70;;;10.90;99.90;;;;;;5050927;28;20033;-81
2023/10/24 04:46:40;;;;;;;6.03;3.35;;;10.90;99.90;;;;;;5041538;28;20037;-81
2023/10/24 04:49:06;;;;;;;3.80;3.30;;;10.90;99.90;;;;;;5026655;28;20034;-81
2023/10/24 04:51:32;;;;;;;6.47;3.28;;;10.90;99.90;;;;;;5050193;28;20030;-83
2023/10/24 04:53:58;;;;;;;6.18;3.13;;;10.90;99.90;;;;;;5029687;28;20490;-81
2023/10/24 04:56:24;;;;;;;5.10;3.42;;;10.90;99.90;;;;;;5040384;28;20052;-81
2023/10/24 04:58:50;;;;;;;5.75;3.80;;;10.90;99.90;;;;;;5033231;28;20034;-82
2023/10/24 05:01:17;;;;;;;4.50;3.70;;;11.00;99.90;;;;;;5036304;28;20080;-81
2023/10/24 05:03:42;;;;;;;4.97;3.78;;;11.00;99.90;;;;;;5038165;28;20037;-83
2023/10/24 05:06:08;;;;;;;7.78;3.78;;;11.00;99.90;;;;;;5040226;28;20743;-81
2023/10/24 05:08:34;;;;;;;6.25;4.07;;;11.00;99.90;;;;;;5038437;28;20072;-83
2023/10/24 05:11:01;;;;;;;5.00;4.38;;;11.00;99.90;;;;;;5014936;28;20091;-82
2023/10/24 05:13:33;;;;;;;6.50;4.57;;;10.90;99.90;;;;;;5013580;28;20916;-82
2023/10/24 05:16:10;;;;;;;7.30;4.78;;;10.80;99.90;;;;;;5041369;28;20026;-82
2023/10/24 05:18:37;;;;;;;8.18;4.32;;;10.80;99.90;;;;;;5041416;28;20084;-83
2023/10/24 05:21:03;;;;;;;6.88;4.45;;;10.80;99.90;;;;;;5007905;28;20037;-82
2023/10/24 05:23:29;;;;;;;8.73;5.00;;;10.70;99.90;;;;;;5042022;28;20045;-81
2023/10/24 05:25:55;;;;;;;7.90;4.32;;;10.70;99.90;;;;;;5046523;28;20041;-84
2023/10/24 05:28:21;;;;;;;5.22;4.45;;;10.70;99.90;;;;;;5032068;28;20021;-83
2023/10/24 05:30:47;;;;;;;5.93;3.97;;;10.70;99.90;;;;;;5044968;28;20396;-83
2023/10/24 05:33:13;;;;;;;7.38;4.25;;;10.70;99.90;;;;;;5033863;28;20029;-80
2023/10/24 05:35:46;;;;;;;6.63;4.38;;;10.70;99.90;;;;;;5017415;28;20626;-82
2023/10/24 05:38:12;;;;;;;8.77;5.05;;;10.70;99.90;;;;;;5028272;28;20048;-81
2023/10/24 05:40:37;;;;;;;10.95;5.07;;;10.70;99.90;;;;;;5051825;28;20030;-81
2023/10/24 05:43:04;;;;;;;6.10;4.55;;;10.60;99.90;;;;;;5033506;28;20042;-81
2023/10/24 05:45:30;;;;;;;6.55;4.90;;;10.70;99.90;;;;;;5040879;28;20044;-81
2023/10/24 05:47:56;;;;;;;7.97;5.05;;;10.70;99.90;;;;;;5038639;28;20886;-82
2023/10/24 05:50:22;;;;;;;7.72;5.13;;;10.60;99.90;;;;;;5046109;28;20040;-82
2023/10/24 05:52:47;;;;;;;5.82;3.88;;;10.60;99.90;;;;;;5032082;28;20049;-83
2023/10/24 05:55:13;;;;;;;8.05;4.22;;;10.60;99.90;;;;;;5031854;28;20370;-83
2023/10/24 05:57:39;;;;;;;7.00;4.90;;;10.60;99.90;;;;;;5032443;28;20038;-81
2023/10/24 06:00:05;;;;;;;5.75;4.68;;;10.60;99.90;;;;;;5017538;28;20033;-82
2023/10/24 06:02:33;;;;;;;8.15;4.63;;;10.60;99.90;;;;;;5033390;28;20037;-80
2023/10/24 06:04:59;;;;;;;5.68;4.38;;;10.60;99.90;;;;;;5033640;28;20072;-82
2023/10/24 06:07:25;;;;;;;7.22;5.13;;;10.60;99.90;;;;;;5038852;28;20048;-82
2023/10/24 06:09:51;;;;;;;6.97;4.78;;;10.60;99.90;;;;;;5034917;28;20044;-82
2023/10/24 06:12:16;;;;;;;6.97;4.40;;;10.60;99.90;;;;;;5031031;28;20056;-84
2023/10/24 06:14:42;;;;;;;7.18;5.22;;;10.60;99.90;;;;;;5048524;28;20064;-83
2023/10/24 06:17:08;;;;;;;6.45;4.90;;;10.60;99.90;;;;;;5033751;28;20389;-83
2023/10/24 06:19:39;;;;;;;6.32;5.03;;;10.60;99.90;;;;;;5047887;28;20032;-84
2023/10/24 06:22:06;;;;;;;7.20;4.88;;;10.60;99.90;;;;;;5032797;28;20484;-80
2023/10/24 06:24:31;;;;;;;8.95;5.35;;;10.60;99.90;;;;;;5037339;28;20091;-82
2023/10/24 06:26:57;;;;;;;6.75;4.88;;;10.60;99.90;;;;;;5033558;28;20049;-83
2023/10/24 06:29:23;;;;;;;8.98;5.03;;;10.50;99.90;;;;;;5035297;28;20120;-83
2023/10/24 06:31:48;;;;;;;8.63;4.93;;;10.50;99.90;;;;;;5017941;28;20037;-83
2023/10/24 06:34:14;;;;;;;9.40;5.30;;;10.50;99.90;;;;;;5036446;28;20025;-83
2023/10/24 06:36:40;;;;;;;7.78;4.82;;;10.50;99.90;;;;;;5015056;28;20513;-82
2023/10/24 06:39:06;;;;;;;4.93;4.40;;;10.50;99.90;;;;;;5035445;28;20033;-81
2023/10/24 06:41:33;;;;;;;7.10;4.60;;;10.50;99.90;;;;;;5045038;28;20029;-82
2023/10/24 06:43:59;;;;;;;7.05;4.55;;;10.50;99.90;;;;;;5037619;28;20060;-82
2023/10/24 06:46:25;;;;;;;6.68;4.13;;;10.60;99.90;;;;;;5033487;28;20034;-84
2023/10/24 06:48:56;;;;;;;7.35;4.30;;;10.60;99.90;;;;;;5038861;28;20091;-81
2023/10/24 06:51:40;;;;;;;7.20;4.32;;;10.60;99.90;;;;;;5028787;28;20269;-82
2023/10/24 06:54:52;;;;;;;4.85;2.95;;;10.70;99.90;;;;;;5019332;28;20037;-82
2023/10/24 06:57:25;;;;;;;4.13;2.72;;;10.70;99.90;;;;;;5047401;28;20030;-81
2023/10/24 06:59:50;;;;;;;5.18;3.00;;;10.70;99.90;;;;;;5031434;28;20075;-81
2023/10/24 07:02:17;;;;;;;4.80;4.05;;;10.70;99.90;;;;;;5034885;28;20045;-80
2023/10/24 07:05:02;;;;;;;7.35;4.50;;;10.70;99.90;;;;;;5044241;28;20099;-81
2023/10/24 07:07:28;;;;;;;6.65;4.32;;;10.70;99.90;;;;;;5042065;28;20079;-81
2023/10/24 07:09:54;;;;;;;7.22;5.00;;;10.70;99.90;;;;;;5029310;28;20037;-80
2023/10/24 07:12:20;;;;;;;7.80;4.75;;;10.70;99.90;;;;;;5031271;28;20033;-82
2023/10/24 07:14:45;;;;;;;4.72;4.20;;;10.80;99.90;;;;;;5046424;28;20144;-83
2023/10/24 07:17:11;;;;;;;6.53;4.40;;;10.80;99.90;;;;;;5043889;28;20029;-80
2023/10/24 07:19:37;;;;;;;7.60;4.50;;;10.90;99.90;;;;;;5027225;28;20121;-79
2023/10/24 07:22:03;;;;;;;4.68;3.50;;;10.90;99.90;;;;;;5028020;28;20029;-79
2023/10/24 07:24:29;;;;;;;6.88;4.47;;;11.00;99.90;;;;;;5028434;28;20033;-81
2023/10/24 07:27:15;;;;;;;7.63;5.15;;;11.10;99.90;;;;;;5041345;28;20026;-81
2023/10/24 07:29:59;;;;;;;6.13;4.65;;;11.10;99.90;;;;;;5027108;28;20409;-81
2023/10/24 07:35:48;;;;;;;10.93;5.05;;;11.10;99.90;;;;;;5041014;28;20096;-80
2023/10/24 07:38:14;;;;;;;7.38;4.68;;;11.20;99.90;;;;;;5031140;28;20037;-80
2023/10/24 07:40:39;;;;;;;7.65;4.88;;;11.20;99.90;;;;;;5032346;28;20083;-80
2023/10/24 07:43:05;;;;;;;7.45;4.82;;;11.20;99.90;;;;;;5021729;28;20030;-81
2023/10/24 07:45:31;;;;;;;6.90;4.65;;;11.20;99.90;;;;;;5048854;28;20034;-81
2023/10/24 07:47:57;;;;;;;6.68;4.63;;;11.20;99.90;;;;;;5029272;28;20499;-82
2023/10/24 07:50:22;;;;;;;6.63;4.93;;;11.20;99.90;;;;;;5028672;28;20481;-81
2023/10/24 07:52:48;;;;;;;6.40;4.43;;;11.30;99.90;;;;;;5025718;28;20032;-81
2023/10/24 07:55:14;;;;;;;5.90;4.65;;;11.30;99.90;;;;;;5034152;28;20517;-82
2023/10/24 07:57:40;;;;;;;9.00;4.72;;;11.30;99.90;;;;;;5028088;28;20473;-79
2023/10/24 08:00:09;;;;;;;7.60;4.57;;;11.40;99.90;;;;;;5026887;28;20029;-80
2023/10/24 08:02:38;;;;;;;7.15;4.28;;;11.40;99.90;;;;;;5030813;28;20041;-82
2023/10/24 08:05:04;;;;;;;7.80;4.30;;;11.40;99.90;;;;;;5025040;28;20033;-80
2023/10/24 08:07:31;;;;;;;6.15;4.53;;;11.50;99.90;;;;;;5036267;28;20038;-82
2023/10/24 08:09:58;;;;;;;5.03;4.25;;;11.50;99.90;;;;;;5023384;28;20045;-82
2023/10/24 08:12:24;;;;;;;8.98;5.00;;;11.50;99.90;;;;;;5026632;28;20048;-81
2023/10/24 08:14:50;;;;;;;6.53;4.93;;;11.50;99.90;;;;;;5043680;28;20063;-81
2023/10/24 08:17:15;;;;;;;4.55;4.00;;;11.50;99.90;;;;;;5026698;28;20018;-80
2023/10/24 08:19:41;;;;;;;7.30;4.57;;;11.60;99.90;;;;;;5027399;28;20097;-79
2023/10/24 08:22:07;;;;;;;8.02;4.25;;;11.60;99.90;;;;;;5028157;28;20037;-81
2023/10/24 08:24:32;;;;;;;6.50;4.82;;;11.60;99.90;;;;;;5013905;28;20042;-81
2023/10/24 08:27:07;;;;;;;6.45;4.70;;;11.60;99.90;;;;;;5033526;28;20045;-76
2023/10/24 08:29:39;;;;;;;8.60;4.43;;;11.60;99.90;;;;;;5027601;28;20486;-80
2023/10/24 08:32:29;;;;;;;8.82;5.35;;;11.60;99.90;;;;;;5034724;28;20291;-82
2023/10/24 08:35:08;;;;;;;5.55;4.97;;;11.60;99.90;;;;;;5032409;28;20029;-81
2023/10/24 08:37:54;;;;;;;10.45;4.85;;;11.60;99.90;;;;;;5034460;28;20522;-80
2023/10/24 08:40:20;;;;;;;5.43;4.88;;;11.60;99.90;;;;;;5031954;28;20041;-81
2023/10/24 08:42:46;;;;;;;7.57;4.90;;;11.60;99.90;;;;;;5029181;28;20143;-81
2023/10/24 08:45:18;;;;;;;5.70;4.47;;;11.70;99.90;;;;;;5031793;28;20125;-81
2023/10/24 08:47:47;;;;;;;6.82;4.75;;;11.70;99.90;;;;;;5042085;28;20053;-81
2023/10/24 08:50:13;;;;;;;9.40;5.43;;;11.70;99.90;;;;;;5016462;28;20099;-81
2023/10/24 08:52:39;;;;;;;8.45;5.20;;;11.70;99.90;;;;;;5034644;28;20097;-81
2023/10/24 08:55:05;;;;;;;8.90;4.97;;;11.70;99.90;;;;;;5033504;28;20124;-79
2023/10/24 08:57:39;;;;;;;8.25;5.05;;;11.80;99.90;;;;;;5035342;28;20021;-81
2023/10/24 09:00:08;;;;;;;6.40;4.82;;;11.80;99.90;;;;;;5033206;28;20040;-80
2023/10/24 09:02:35;;;;;;;8.68;5.53;;;11.80;99.90;;;;;;5039650;28;20467;-80
2023/10/24 09:05:01;;;;;;;12.75;5.10;;;11.80;99.90;;;;;;5030992;28;20116;-79
2023/10/24 09:07:27;;;;;;;9.48;5.10;;;11.80;99.90;;;;;;5034896;28;20057;-79
2023/10/24 09:09:53;;;;;;;7.90;5.00;;;11.70;99.90;;;;;;5037590;28;20041;-80
2023/10/24 09:12:21;;;;;;;8.13;5.43;;;11.70;99.90;;;;;;5035339;28;20064;-81
2023/10/24 09:14:49;;;;;;;6.97;5.25;;;11.70;99.90;;;;;;5041498;28;20040;-82
2023/10/24 09:17:16;;;;;;;8.02;4.68;;;11.80;99.90;;;;;;5037567;28;20097;-80
2023/10/24 09:19:42;;;;;;;9.38;4.93;;;11.90;99.90;;;;;;5041579;28;20046;-81
2023/10/24 09:22:09;;;;;;;9.57;5.18;;;11.90;99.90;;;;;;5034397;28;20029;-80
2023/10/24 09:24:35;;;;;;;9.27;5.18;;;11.90;99.90;;;;;;5040070;28;20053;-82
2023/10/24 09:27:01;;;;;;;7.97;5.20;;;11.80;99.90;;;;;;5018692;28;20034;-80
2023/10/24 09:29:27;;;;;;;7.05;5.05;;;11.90;99.90;;;;;;5035304;28;20577;-81
2023/10/24 09:32:20;;;;;;;6.38;4.95;;;11.90;99.90;;;;;;5031928;28;20048;-81
2023/10/24 09:34:46;;;;;;;9.15;4.82;;;12.00;99.90;;;;;;5040142;28;20093;-80
2023/10/24 09:37:16;;;;;;;8.20;4.35;;;12.10;99.90;;;;;;5041146;28;20036;-82
2023/10/24 09:39:52;;;;;;;7.60;4.88;;;12.00;99.90;;;;;;5037358;28;20033;-83
2023/10/24 09:42:24;;;;;;;8.65;4.88;;;12.00;99.90;;;;;;5053590;28;20053;-81
2023/10/24 09:45:05;;;;;;;6.35;4.03;;;12.10;99.90;;;;;;5030450;28;20053;-81
2023/10/24 09:47:42;;;;;;;5.22;3.90;;;12.00;99.90;;;;;;5031875;28;20073;-81
2023/10/24 09:50:09;;;;;;;5.43;3.80;;;12.00;99.90;;;;;;5035647;28;20033;-81
2023/10/24 09:52:40;;;;;;;5.13;4.07;;;12.00;99.90;;;;;;5035850;28;20037;-81
2023/10/24 09:55:07;;;;;;;5.75;4.15;;;12.10;99.90;;;;;;5039119;28;20484;-81
2023/10/24 09:57:35;;;;;;;8.43;4.28;;;12.10;99.90;;;;;;5041344;28;20064;-81
2023/10/24 10:00:04;;;;;;;5.63;3.70;;;12.10;99.90;;;;;;5036810;28;20029;-81
2023/10/24 10:02:42;;;;;;;5.20;4.07;;;12.10;99.90;;;;;;5036050;28;20340;-80
2023/10/24 10:05:29;;;;;;;7.45;4.25;;;12.20;99.90;;;;;;5038472;28;20056;-81
2023/10/24 10:07:57;;;;;;;5.57;3.80;;;12.20;99.90;;;;;;5036776;28;20049;-82
2023/10/24 10:10:27;;;;;;;6.65;4.13;;;12.20;99.90;;;;;;5029210;28;20048;-82
2023/10/24 10:12:59;;;;;;;6.85;3.72;;;12.30;99.90;;;;;;5043370;28;20028;-81
2023/10/24 10:15:50;;;;;;;7.38;4.07;;;12.30;99.90;;;;;;5029781;28;20037;-82
2023/10/24 10:18:34;;;;;;;5.75;3.85;;;12.30;99.90;;;;;;5042615;28;20029;-81
2023/10/24 10:21:13;;;;;;;7.22;4.45;;;12.30;99.90;;;;;;5036084;28;20104;-81
2023/10/24 10:23:57;;;;;;;8.18;4.20;;;12.30;99.90;;;;;;5040292;28;20040;-81
2023/10/24 10:26:42;;;;;;;7.47;4.47;;;12.30;99.90;;;;;;5040211;28;20724;-80
2023/10/24 10:29:48;;;;;;;4.35;3.95;;;12.30;99.90;;;;;;5032098;28;20617;-79
2023/10/24 10:32:28;;;;;;;6.65;4.50;;;12.20;99.90;;;;;;5040492;28;20120;-81
2023/10/24 10:34:54;;;;;;;7.28;4.78;;;12.30;99.90;;;;;;5039648;28;20056;-80
2023/10/24 10:37:20;;;;;;;5.30;4.15;;;12.30;99.90;;;;;;5034916;28;20057;-81
2023/10/24 10:40:16;;;;;;;5.97;4.30;;;12.20;99.90;;;;;;5029113;28;20121;-81
2023/10/24 10:42:49;;;;;;;7.03;4.15;;;12.20;99.90;;;;;;5036338;28;20632;-80
2023/10/24 10:45:32;;;;;;;7.03;4.38;;;12.20;99.90;;;;;;5034651;28;20036;-82
2023/10/24 10:47:59;;;;;;;6.20;5.05;;;12.30;99.90;;;;;;5031187;28;20400;-81
2023/10/24 10:50:30;;;;;;;8.85;4.90;;;12.30;99.90;;;;;;5018881;28;20136;-81
2023/10/24 10:52:57;;;;;;;7.15;4.53;;;12.30;99.90;;;;;;5034578;28;20112;-82
2023/10/24 10:55:59;;;;;;;7.75;4.72;;;12.30;99.90;;;;;;5038303;28;20029;-81
2023/10/24 10:58:53;;;;;;;5.40;4.82;;;12.40;99.90;;;;;;5028089;28;20026;-80
2023/10/24 11:01:37;;;;;;;6.00;4.78;;;12.40;99.90;;;;;;5049233;28;20481;-80
2023/10/24 11:04:15;;;;;;;5.00;4.30;;;12.40;99.90;;;;;;5035480;28;20436;-80
2023/10/24 11:07:23;;;;;;;5.65;4.55;;;12.40;99.90;;;;;;5029745;28;20022;-82
2023/10/24 11:09:50;;;;;;;5.47;4.70;;;12.50;99.90;;;;;;5032557;28;20083;-84
2023/10/24 11:12:19;;;;;;;6.45;4.22;;;12.40;99.90;;;;;;5030861;28;20036;-82
2023/10/24 11:15:16;;;;;;;10.27;5.32;;;12.40;99.90;;;;;;5041755;28;20099;-83
2023/10/24 11:17:43;;;;;;;7.03;4.80;;;12.40;99.90;;;;;;5030179;28;20057;-81
2023/10/24 11:20:10;;;;;;;6.78;4.82;;;12.40;99.90;;;;;;5049598;28;20061;-83
2023/10/24 11:22:37;;;;;;;6.15;5.47;;;12.40;99.90;;;;;;5029084;28;20045;-81
2023/10/24 11:25:12;;;;;;;10.88;5.50;;;12.30;99.90;;;;;;5036432;28;20084;-83
2023/10/24 11:27:39;;;;;;;7.53;5.60;;;12.20;99.90;;;;;;5021011;28;20040;-81
2023/10/24 11:30:06;;;;;;;10.88;6.03;;;12.20;99.90;;;;;;5030713;28;20033;-81
2023/10/24 11:32:34;;;;;;;9.60;6.68;;;12.20;99.90;;;;;;5027653;28;20041;-83
2023/10/24 11:35:07;;;;;;;8.45;5.85;;;12.10;99.90;;;;;;5028826;28;20053;-83
2023/10/24 11:38:27;;;;;;;7.75;5.25;;;12.10;99.90;;;;;;5027074;28;20047;-83
2023/10/24 11:40:53;;;;;;;44.10;27.70;;;12.10;99.90;;;;;;5024144;28;20026;-84
2023/10/24 11:43:49;;;;;;;139.32;57.35;;;12.00;99.90;;;;;;5026538;28;20040;-83
2023/10/24 11:46:14;;;;;;;181.63;72.88;;;12.00;99.90;;;;;;5024883;28;20030;-81
2023/10/24 11:48:40;;;;;;;61.20;25.88;;;11.90;99.90;;;;;;5031879;28;20457;-80
2023/10/24 11:51:07;;;;;;;16.15;9.48;;;12.00;99.90;;;;;;5020338;28;20026;-82
2023/10/24 11:53:45;;;;;;;103.60;65.50;;;12.00;99.90;;;;;;5024422;28;20092;-84
2023/10/24 11:56:21;;;;;;;86.50;59.50;;;11.90;99.90;;;;;;5017577;28;20030;-83
2023/10/24 11:59:09;;;;;;;19.00;15.63;;;11.80;99.90;;;;;;5029684;28;20026;-80
2023/10/24 12:01:35;;;;;;;11.95;9.18;;;11.80;99.90;;;;;;5033290;28;20655;-82
2023/10/24 12:04:04;;;;;;;13.02;8.13;;;11.80;99.90;;;;;;5026975;28;20057;-83
2023/10/24 12:06:29;;;;;;;14.65;11.05;;;11.70;99.90;;;;;;5031794;28;20037;-82
2023/10/24 12:08:57;;;;;;;10.98;8.88;;;11.70;99.90;;;;;;5034659;28;20037;-81
2023/10/24 12:11:24;;;;;;;18.25;11.35;;;11.60;99.90;;;;;;5033785;28;20079;-83
2023/10/24 12:13:50;;;;;;;13.40;11.00;;;11.70;99.90;;;;;;5029849;28;20544;-81
2023/10/24 12:16:15;;;;;;;15.60;11.63;;;11.70;99.90;;;;;;5038979;28;20021;-81
2023/10/24 12:18:41;;;;;;;14.95;11.10;;;11.70;99.90;;;;;;5030416;28;20040;-82
2023/10/24 12:21:09;;;;;;;15.63;11.30;;;11.70;99.90;;;;;;5019997;28;20033;-82
2023/10/24 12:23:36;;;;;;;16.88;11.40;;;11.70;99.90;;;;;;5019490;28;20036;-82
2023/10/24 12:26:04;;;;;;;14.20;10.35;;;11.70;99.90;;;;;;5018230;28;20033;-83
2023/10/24 12:28:32;;;;;;;13.25;9.80;;;11.70;99.90;;;;;;5024017;28;20128;-81
2023/10/24 12:30:58;;;;;;;10.68;8.77;;;11.70;99.90;;;;;;5033005;28;20114;-81
2023/10/24 12:33:25;;;;;;;15.18;8.30;;;11.70;99.90;;;;;;5031344;28;20519;-83
2023/10/24 12:35:51;;;;;;;12.00;9.13;;;11.70;99.90;;;;;;5037725;28;20169;-81
2023/10/24 12:38:17;;;;;;;14.55;8.35;;;11.70;99.90;;;;;;5034823;28;20033;-81
2023/10/24 12:40:44;;;;;;;9.85;7.28;;;11.70;99.90;;;;;;5036929;28;20026;-83
2023/10/24 12:43:11;;;;;;;10.20;7.93;;;11.70;99.90;;;;;;5039880;28;20044;-84
2023/10/24 12:45:37;;;;;;;12.20;9.55;;;11.70;99.90;;;;;;5035507;28;20065;-82
2023/10/24 12:48:07;;;;;;;13.27;9.43;;;11.60;99.90;;;;;;5018762;28;20033;-80
2023/10/24 12:50:33;;;;;;;14.85;8.55;;;11.60;99.90;;;;;;5041108;28;20037;-81
2023/10/24 12:52:59;;;;;;;10.63;8.52;;;11.60;99.90;;;;;;5036993;28;20144;-81
2023/10/24 12:55:34;;;;;;;10.13;7.45;;;11.60;99.90;;;;;;5036774;28;20796;-82
2023/10/24 12:58:00;;;;;;;12.25;7.80;;;11.60;99.90;;;;;;5031304;28;20430;-83
2023/10/24 13:00:52;;;;;;;14.43;8.50;;;11.50;99.90;;;;;;5041433;28;20080;-80